Latest Weather Observations for Red Rocks Point

IDW60801

Issued at 2:33 pm WST Thursday 30 June 2016 (issued every 30 minutes, with the page automatically refreshed every 10 minutes)

About weather observations | Map of weather stations | Latest weather observations for WA | Other Formats
Station Details ID: 011053 Name: RED ROCKS POINT Lat: -32.20 Lon: 127.53 Height: 3.1 m
Data from the previous 72 hours. | See also: Recent months at Red Rocks Point
Date/Time
WST
Temp
°C
App
Temp
°C
Dew
Point
°C
Rel
Hum
%
Delta-T
°C
Wind Press
QNH
hPa
Press
MSL
hPa
Rain since
9am
mm
Dir  Spd
km/h
Gust
km/h
Spd
kts
Gust
kts
30/02:30pm 15.5 12.9 11.9 79 1.9 WSW 17 24 9 13 1023.2 1023.2 0.2
30/02:00pm 16.8 14.5 11.9 73 2.7 WSW 15 20 8 11 1022.9 1022.9 0.2
30/01:30pm 16.7 14.2 12.3 75 2.4 WSW 17 24 9 13 1022.9 1022.9 0.2
30/01:00pm 16.5 13.4 12.3 76 2.3 WSW 20 28 11 15 1023.1 1023.1 0.2
30/12:30pm 15.7 13.2 12.3 80 1.9 WSW 17 26 9 14 1023.3 1023.3 0.2
30/12:00pm 16.2 13.9 12.9 81 1.8 WSW 17 24 9 13 1023.4 1023.4 0.2
30/11:30am 15.2 12.8 12.7 85 1.4 WSW 17 26 9 14 1023.7 1023.7 0.2
30/11:00am 14.5 11.3 12.0 85 1.3 WSW 20 30 11 16 1024.0 1024.0 0.2
30/10:30am 15.7 13.2 12.3 80 1.9 WSW 17 22 9 12 1024.1 1024.1 0.0
30/10:00am 16.1 13.3 12.5 79 2.0 WSW 19 28 10 15 1024.1 1024.1 0.0
30/09:30am 16.0 14.2 12.2 78 2.1 WNW 13 20 7 11 1024.0 1024.0 0.0
30/09:00am 13.4 11.0 10.2 81 1.6 NW 13 20 7 11 1024.0 1024.0 0.2
30/08:30am 12.3 9.0 9.5 83 1.4 NW 17 20 9 11 1023.7 1023.7 0.2
30/08:00am 10.9 7.9 9.2 89 0.8 NW 15 20 8 11 1023.4 1023.4 0.2
30/07:30am 9.8 6.2 8.4 91 0.7 NW 17 22 9 12 1023.0 1023.0 0.2
30/07:00am 8.8 4.9 7.3 90 0.7 NW 17 20 9 11 1022.7 1022.7 0.2
30/06:30am 10.5 6.7 7.7 83 1.3 WNW 17 26 9 14 1022.2 1022.2 0.2
30/06:00am 11.9 8.1 7.4 74 2.2 W 17 30 9 16 1021.9 1021.9 0.2
30/05:30am 13.6 7.8 8.0 69 2.8 SW 28 39 15 21 1021.4 1021.4 0.2
30/05:00am 13.1 8.7 10.3 83 1.4 WSW 24 35 13 19 1021.0 1021.0 0.2
30/04:30am 10.0 7.0 9.1 94 0.4 WNW 15 22 8 12 1020.7 1020.7 0.0
30/04:00am 10.1 7.1 9.3 95 0.4 WNW 15 20 8 11 1020.4 1020.4 0.0
30/03:30am 9.1 5.9 8.3 95 0.4 WNW 15 20 8 11 1020.3 1020.3 0.0
30/03:00am 8.9 5.6 8.1 95 0.4 WNW 15 20 8 11 1020.2 1020.2 0.0
30/02:30am 9.0 5.7 8.2 95 0.4 WNW 15 19 8 10 1020.0 1020.0 0.0
30/02:00am 9.1 5.9 8.3 95 0.4 NW 15 20 8 11 1019.9 1019.9 0.0
30/01:30am 9.0 5.7 8.2 95 0.4 WNW 15 19 8 10 1019.7 1019.7 0.0
30/01:00am 8.9 5.6 8.1 95 0.4 WNW 15 19 8 10 1019.4 1019.4 0.0
30/12:30am 9.1 5.5 8.3 95 0.4 WNW 17 19 9 10 1019.3 1019.3 0.0
30/12:00am 9.2 6.0 8.4 95 0.4 NW 15 19 8 10 1019.2 1019.2 0.0
 
Date/Time
WST
Temp
°C
App
Temp
°C
Dew
Point
°C
Rel
Hum
%
Delta-T
°C
Wind Press
QNH
hPa
Press
MSL
hPa
Rain since
9am
mm
Dir  Spd
km/h
Gust
km/h
Spd
kts
Gust
kts
29/11:30pm 9.5 6.3 8.6 94 0.4 NW 15 20 8 11 1019.2 1019.2 0.0
29/11:00pm 9.9 6.8 9.0 94 0.4 NW 15 19 8 10 1019.0 1019.0 0.0
29/10:30pm 9.8 6.7 8.7 93 0.5 NW 15 17 8 9 1019.1 1019.1 0.0
29/10:00pm 9.9 6.4 8.7 92 0.6 NW 17 19 9 10 1019.0 1019.0 0.0
29/09:30pm 10.3 6.8 8.9 91 0.7 NW 17 19 9 10 1018.8 1018.8 0.0
29/09:00pm 11.5 9.0 9.6 88 1.0 WNW 13 15 7 8 1018.5 1018.5 0.0
29/08:30pm 11.9 10.1 9.6 86 1.2 WNW 9 13 5 7 1018.2 1018.2 0.0
29/08:00pm 13.0 10.9 11.1 88 1.0 W 13 17 7 9 1017.8 1017.8 0.0
29/07:30pm 12.3 9.9 10.0 86 1.2 WNW 13 15 7 8 1017.5 1017.5 0.0
29/07:00pm 12.4 10.1 10.3 87 1.1 WNW 13 15 7 8 1017.3 1017.3 0.0
29/06:30pm 13.1 11.2 10.6 85 1.3 W 11 13 6 7 1016.8 1016.8 0.0
29/06:00pm 13.1 10.8 10.5 84 1.3 WNW 13 15 7 8 1016.3 1016.3 0.0
29/05:30pm 13.4 11.4 10.2 81 1.7 W 11 13 6 7 1015.8 1015.8 0.0
29/05:00pm 14.6 13.2 11.0 79 1.9 W 9 13 5 7 1015.4 1015.4 0.0
29/04:30pm 15.5 13.7 10.9 74 2.4 WSW 11 15 6 8 1015.0 1015.0 0.0
29/04:00pm 16.4 14.1 10.5 68 3.1 WSW 13 17 7 9 1014.6 1014.6 0.0
29/03:30pm 17.5 15.0 10.9 65 3.5 WSW 15 22 8 12 1014.3 1014.3 0.0
29/03:00pm 17.7 14.3 10.6 63 3.8 WSW 19 26 10 14 1014.0 1014.0 0.0
29/02:30pm 18.4 15.0 11.2 63 3.9 SW 20 30 11 16 1013.8 1013.8 0.0
29/02:00pm 18.2 14.8 11.3 64 3.8 SW 20 32 11 17 1013.4 1013.4 0.0
29/01:30pm 22.0 18.1 9.5 45 6.7 W 20 35 11 19 1012.9 1012.9 0.0
29/01:00pm 19.6 17.1 11.1 58 4.6 WSW 15 22 8 12 1012.9 1012.9 0.0
29/12:30pm 18.2 15.2 10.6 61 4.1 WSW 17 26 9 14 1013.3 1013.3 0.0
29/12:00pm 21.7 17.8 8.6 43 6.9 NW 19 32 10 17 1013.6 1013.6 0.0
29/11:30am 21.1 16.8 8.0 43 6.8 W 20 32 11 17 1013.9 1013.9 0.0
29/11:00am 21.5 16.3 7.3 40 7.3 WNW 24 37 13 20 1014.4 1014.4 0.0
29/10:30am 20.4 16.0 6.4 40 7.0 NW 19 32 10 17 1014.8 1014.8 0.0
29/10:00am 19.5 14.9 6.6 43 6.5 NW 20 32 11 17 1014.9 1014.9 0.0
29/09:30am 17.4 12.9 6.0 47 5.6 NW 19 32 10 17 1015.3 1015.3 0.0
29/09:00am 15.8 11.2 5.7 51 4.8 NNW 19 30 10 16 1015.5 1015.5 0.0
29/08:30am 13.6 8.8 4.7 55 4.1 NNW 19 30 10 16 1015.5 1015.5 0.0
29/08:00am 11.9 7.1 4.6 61 3.3 NNW 19 28 10 15 1015.4 1015.4 0.0
29/07:30am 9.3 5.1 3.7 68 2.4 NNW 15 22 8 12 1015.6 1015.6 0.0
29/07:00am 7.4 3.5 3.3 75 1.7 NNW 13 20 7 11 1015.3 1015.3 0.0
29/06:30am 6.5 2.1 2.9 78 1.5 NNW 15 20 8 11 1015.0 1015.0 0.0
29/06:00am 6.3 1.9 2.8 78 1.4 NNW 15 20 8 11 1014.8 1014.8 0.0
29/05:30am 6.6 2.2 2.9 77 1.5 NNW 15 20 8 11 1014.7 1014.7 0.0
29/05:00am 6.8 2.8 2.9 76 1.6 NNW 13 17 7 9 1014.6 1014.6 0.0
29/04:30am 7.5 3.6 3.2 74 1.8 NNW 13 19 7 10 1014.4 1014.4 0.0
29/04:00am 7.9 4.0 3.2 72 2.0 NNW 13 19 7 10 1014.4 1014.4 0.0
29/03:30am 8.1 4.2 3.4 72 2.0 NNW 13 19 7 10 1014.6 1014.6 0.0
29/03:00am 8.2 3.9 3.5 72 2.0 NNW 15 19 8 10 1014.8 1014.8 0.0
29/02:30am 8.2 4.4 3.7 73 1.9 N 13 17 7 9 1014.9 1014.9 0.0
29/02:00am 8.5 4.6 3.6 71 2.1 N 13 17 7 9 1015.3 1015.3 0.0
29/01:30am 9.4 5.2 3.8 68 2.4 N 15 20 8 11 1015.4 1015.4 0.0
29/01:00am 9.9 6.1 3.9 66 2.6 N 13 19 7 10 1015.7 1015.7 0.0
29/12:30am 9.8 6.0 4.0 67 2.6 N 13 17 7 9 1015.8 1015.8 0.0
29/12:00am 9.4 5.5 3.6 67 2.5 N 13 17 7 9 1016.0 1016.0 0.0
 
Date/Time
WST
Temp
°C
App
Temp
°C
Dew
Point
°C
Rel
Hum
%
Delta-T
°C
Wind Press
QNH
hPa
Press
MSL
hPa
Rain since
9am
mm
Dir  Spd
km/h
Gust
km/h
Spd
kts
Gust
kts
28/11:30pm 9.3 5.4 3.5 67 2.5 N 13 17 7 9 1016.2 1016.2 0.0
28/11:00pm 9.0 4.8 3.6 69 2.3 N 15 19 8 10 1016.5 1016.5 0.0
28/10:30pm 8.4 4.6 3.7 72 2.0 N 13 17 7 9 1016.8 1016.8 0.0
28/10:00pm 7.8 3.9 3.3 73 1.9 N 13 15 7 8 1017.2 1017.2 0.0
28/09:30pm 8.1 3.8 3.4 72 2.0 N 15 17 8 9 1017.4 1017.4 0.0
28/09:00pm 8.3 4.4 3.4 71 2.1 N 13 15 7 8 1017.5 1017.5 0.0
28/08:30pm 8.7 4.8 3.5 70 2.2 N 13 17 7 9 1017.5 1017.5 0.0
28/08:00pm 9.0 5.9 3.4 68 2.4 NNW 9 13 5 7 1017.7 1017.7 0.0
28/07:30pm 9.0 5.5 3.4 68 2.4 N 11 13 6 7 1017.6 1017.6 0.0
28/07:00pm 9.7 6.2 3.7 66 2.6 N 11 13 6 7 1017.6 1017.6 0.0
28/06:30pm 10.1 6.7 3.8 65 2.8 N 11 11 6 6 1017.2 1017.2 0.0
28/06:00pm 10.7 7.3 4.0 63 3.0 N 11 11 6 6 1017.1 1017.1 0.0
28/05:30pm 11.9 8.5 3.9 58 3.6 N 11 11 6 6 1016.9 1016.9 0.0
28/05:00pm 12.6 9.9 3.6 54 4.0 NNW 7 9 4 5 1016.6 1016.6 0.0
28/04:30pm 16.2 12.9 4.3 45 5.6 NNW 11 17 6 9 1016.5 1016.5 0.0
28/04:00pm 17.6 13.4 3.9 40 6.4 N 15 24 8 13 1016.2 1016.2 0.0
28/03:30pm 18.4 13.9 4.2 39 6.7 NNW 17 26 9 14 1016.3 1016.3 0.0
28/03:00pm 18.6 13.4 3.6 37 7.0 N 20 28 11 15 1016.3 1016.3 0.0
28/02:30pm 19.0 14.1 4.0 37 7.1 NNW 19 30 10 16 1016.5 1016.5 0.0
28/02:00pm 19.0 14.8 4.0 37 7.1 NNW 15 28 8 15 1016.5 1016.5 0.0
28/01:30pm 18.5 13.3 3.6 37 7.0 NNW 20 35 11 19 1016.6 1016.6 0.0
28/01:00pm 18.8 13.3 3.8 37 7.1 NW 22 33 12 18 1017.0 1017.0 0.0
28/12:30pm 18.9 13.4 3.9 37 7.1 NNW 22 35 12 19 1018.0 1018.0 0.0
28/12:00pm 18.1 13.0 3.9 39 6.7 NNW 20 32 11 17 1018.8 1018.8 0.0
28/11:30am 17.6 12.5 3.9 40 6.4 NNW 20 33 11 18 1019.5 1019.5 0.0
28/11:00am 17.3 11.9 4.6 43 6.0 NNW 22 32 12 17 1020.3 1020.3 0.0
28/10:30am 17.1 12.2 4.1 42 6.1 N 19 28 10 15 1020.9 1020.9 0.0
28/10:00am 15.9 10.7 3.4 43 5.7 N 20 32 11 17 1021.5 1021.5 0.0
28/09:30am 14.8 9.7 3.0 45 5.3 N 19 26 10 14 1022.1 1022.1 0.0
28/09:00am 13.4 9.1 3.2 50 4.5 N 15 24 8 13 1022.5 1022.5 0.0
28/08:30am 11.3 6.9 2.9 56 3.7 N 15 20 8 11 1022.7 1022.7 0.0
28/08:00am 9.2 5.1 2.5 63 2.8 N 13 20 7 11 1022.9 1022.9 0.0
28/07:30am 6.7 2.5 1.8 71 2.0 N 13 17 7 9 1022.8 1022.8 0.0
28/07:00am 5.8 2.0 1.5 74 1.7 N 11 15 6 8 1022.7 1022.7 0.0
28/06:30am 6.1 1.9 1.6 73 1.8 N 13 17 7 9 1022.3 1022.3 0.0
28/06:00am 6.7 2.5 1.8 71 2.0 N 13 19 7 10 1022.1 1022.1 0.0
28/05:30am 7.0 2.1 2.1 71 2.0 N 17 22 9 12 1021.7 1021.7 0.0
28/05:00am 6.9 2.4 2.0 71 2.0 N 15 22 8 12 1021.3 1021.3 0.0
28/04:30am 6.6 2.1 2.1 73 1.8 N 15 20 8 11 1021.1 1021.1 0.0
28/04:00am 6.1 1.2 1.8 74 1.7 N 17 24 9 13 1021.1 1021.1 0.0
28/03:30am 6.0 1.0 1.3 72 1.9 N 17 20 9 11 1021.1 1021.1 0.0
28/03:00am 6.0 1.4 1.5 73 1.8 N 15 20 8 11 1021.3 1021.3 0.0
28/02:30am 5.8 1.2 1.3 73 1.8 N 15 20 8 11 1021.5 1021.5 0.0
28/02:00am 6.8 1.8 1.5 69 2.1 N 17 30 9 16 1021.6 1021.6 0.0
28/01:30am 6.3 1.7 1.4 71 2.0 N 15 20 8 11 1021.8 1021.8 0.0
28/01:00am 5.5 0.5 1.2 74 1.7 N 17 20 9 11 1021.8 1021.8 0.0
28/12:30am 6.3 1.3 1.4 71 2.0 N 17 22 9 12 1021.6 1021.6 0.0
28/12:00am 5.4 0.8 1.7 77 1.5 N 15 19 8 10 1022.1 1022.1 0.0
 
Date/Time
WST
Temp
°C
App
Temp
°C
Dew
Point
°C
Rel
Hum
%
Delta-T
°C
Wind Press
QNH
hPa
Press
MSL
hPa
Rain since
9am
mm
Dir  Spd
km/h
Gust
km/h
Spd
kts
Gust
kts
27/11:30pm 5.5 1.0 2.0 78 1.4 N 15 19 8 10 1022.4 1022.4 0.0
27/11:00pm 5.3 0.7 1.8 78 1.4 N 15 17 8 9 1022.7 1022.7 0.0
27/10:30pm 5.9 1.3 1.8 75 1.6 N 15 17 8 9 1022.7 1022.7 0.0
27/10:00pm 6.5 1.6 2.2 74 1.7 N 17 20 9 11 1022.8 1022.8 0.0
27/09:30pm 6.7 2.2 2.4 74 1.8 N 15 17 8 9 1022.7 1022.7 0.0
27/09:00pm 7.1 2.7 2.8 74 1.8 N 15 17 8 9 1022.7 1022.7 0.0
27/08:30pm 7.4 3.0 2.7 72 2.0 N 15 17 8 9 1022.8 1022.8 0.0
27/08:00pm 7.8 3.8 2.9 71 2.1 N 13 15 7 8 1022.7 1022.7 0.0
27/07:30pm 8.8 4.9 3.2 68 2.4 N 13 15 7 8 1022.8 1022.8 0.0
27/07:00pm 8.9 5.0 3.3 68 2.4 N 13 15 7 8 1022.8 1022.8 0.0
27/06:30pm 9.2 5.3 3.4 67 2.5 N 13 15 7 8 1022.6 1022.6 0.0
27/06:00pm 9.2 5.7 3.4 67 2.5 N 11 13 6 7 1022.5 1022.5 0.0
27/05:30pm 9.4 5.9 3.4 66 2.6 N 11 13 6 7 1022.4 1022.4 0.0
27/05:00pm 10.1 7.0 3.4 63 2.9 N 9 11 5 6 1022.3 1022.3 0.0
27/04:30pm 11.8 9.1 3.6 57 3.6 NNW 7 9 4 5 1022.2 1022.2 0.0
27/04:00pm 14.8 11.3 3.6 47 5.1 NNW 11 17 6 9 1022.0 1022.0 0.0
27/03:30pm 16.2 11.9 3.3 42 5.9 NNW 15 20 8 11 1021.9 1021.9 0.0
27/03:00pm 17.1 12.9 3.8 41 6.2 NNW 15 24 8 13 1022.0 1022.0 0.0

Other Formats:

Comma delimited format used in spreadsheet applications
http://www.bom.gov.au/fwo/IDW60801/IDW60801.94644.axf

JavaScript Object Notation format (JSON) in row-major order
http://www.bom.gov.au/fwo/IDW60801/IDW60801.94644.json